Time;durP1;ratioP1;P1;durP2;ratioP2;P2;SDS_P1;SDS_P2;PMS_P1;PMS_P2;Temp;Humidity;BMP_temperature;BMP_pressure;BME280_temperature;BME280_humidity;BME280_pressure;Samples;Min_cycle;Max_cycle;Signal;HPM_P1;HPM_P2
2020/12/18 00:00:06;;;;;;;54.15;18.77;;;;;;;1.15;100.00;97617.28;4978556;28;20046;-63
2020/12/18 00:02:32;;;;;;;46.80;18.50;;;;;;;1.22;100.00;97609.66;4983265;28;20057;-63
2020/12/18 00:04:58;;;;;;;54.58;20.80;;;;;;;1.13;100.00;97601.41;4985304;28;20038;-65
2020/12/18 00:07:23;;;;;;;48.92;18.42;;;;;;;1.08;100.00;97600.63;4980344;28;20515;-63
2020/12/18 00:09:49;;;;;;;49.78;18.60;;;;;;;1.09;100.00;97611.13;4983014;28;20132;-63
2020/12/18 00:12:14;;;;;;;46.28;17.25;;;;;;;1.17;100.00;97598.13;4992622;28;20521;-63
2020/12/18 00:14:40;;;;;;;42.58;17.65;;;;;;;1.19;100.00;97609.44;5009947;28;20188;-63
2020/12/18 00:17:05;;;;;;;53.55;20.73;;;;;;;1.20;100.00;97603.75;5008751;28;20050;-62
2020/12/18 00:19:31;;;;;;;45.15;18.20;;;;;;;1.27;100.00;97601.53;5003131;28;20038;-63
2020/12/18 00:21:57;;;;;;;40.28;16.20;;;;;;;1.41;100.00;97604.38;5002769;28;20048;-63
2020/12/18 00:24:23;;;;;;;41.03;16.83;;;;;;;1.38;100.00;97604.13;4997573;28;20048;-64
2020/12/18 00:26:48;;;;;;;39.05;17.02;;;;;;;1.42;100.00;97583.59;5001271;28;20042;-64
2020/12/18 00:29:14;;;;;;;43.60;19.05;;;;;;;1.52;100.00;97596.97;5012010;28;20081;-62
2020/12/18 00:31:40;;;;;;;37.38;16.23;;;;;;;1.42;100.00;97592.47;5013795;28;20053;-63
2020/12/18 00:34:05;;;;;;;36.72;16.33;;;;;;;1.42;100.00;97600.56;4998792;28;20070;-63
2020/12/18 00:36:31;;;;;;;36.50;15.73;;;;;;;1.49;100.00;97597.53;5002967;28;20038;-64
2020/12/18 00:38:56;;;;;;;37.65;15.48;;;;;;;1.46;100.00;97598.94;5003022;28;20045;-63
2020/12/18 00:41:22;;;;;;;32.47;14.63;;;;;;;1.68;100.00;97598.44;4994762;28;20693;-62
2020/12/18 00:43:47;;;;;;;41.92;17.25;;;;;;;1.87;100.00;97595.81;5001025;28;20038;-63
2020/12/18 00:46:13;;;;;;;30.35;15.10;;;;;;;1.97;100.00;97591.38;4996568;28;20064;-62
2020/12/18 00:48:38;;;;;;;24.38;12.02;;;;;;;2.00;98.89;97588.06;5003194;28;20108;-65
2020/12/18 00:51:04;;;;;;;26.48;12.75;;;;;;;1.95;98.58;97588.94;5029443;28;20052;-63
2020/12/18 00:53:29;;;;;;;26.27;12.95;;;;;;;2.15;98.25;97593.28;5033726;28;20041;-62
2020/12/18 00:55:55;;;;;;;22.58;11.32;;;;;;;2.22;96.43;97595.66;5029690;28;20056;-63
2020/12/18 00:58:20;;;;;;;23.52;12.02;;;;;;;1.65;97.51;97590.91;5016671;28;20481;-64
2020/12/18 01:00:46;;;;;;;23.83;12.45;;;;;;;1.52;98.82;97596.97;5020683;28;20080;-63
2020/12/18 01:03:11;;;;;;;27.13;13.32;;;;;;;1.50;99.56;97594.56;4996666;28;20033;-62
2020/12/18 01:05:37;;;;;;;27.92;14.30;;;;;;;1.63;99.39;97597.69;5002166;28;20487;-63
2020/12/18 01:08:03;;;;;;;26.88;12.52;;;;;;;1.84;99.08;97599.06;4999157;28;20080;-61
2020/12/18 01:10:28;;;;;;;23.17;14.15;;;;;;;1.60;98.58;97598.25;5000947;28;20096;-63
2020/12/18 01:12:54;;;;;;;27.58;13.93;;;;;;;1.34;99.73;97593.09;5008873;28;20041;-61
2020/12/18 01:15:19;;;;;;;24.60;13.02;;;;;;;1.44;99.85;97597.59;5000053;28;20077;-62
2020/12/18 01:17:44;;;;;;;28.52;13.93;;;;;;;1.68;99.42;97606.53;5005989;28;20128;-62
2020/12/18 01:20:10;;;;;;;28.58;14.63;;;;;;;1.58;99.11;97601.22;4993847;28;20057;-62
2020/12/18 01:22:35;;;;;;;25.77;12.98;;;;;;;1.55;98.96;97603.69;5012992;28;20141;-63
2020/12/18 01:25:02;;;;;;;26.10;12.55;;;;;;;1.90;96.96;97599.81;5004990;28;20072;-64
2020/12/18 01:27:27;;;;;;;23.60;14.10;;;;;;;1.61;96.47;97603.38;5016115;28;20045;-62
2020/12/18 01:29:52;;;;;;;23.30;12.02;;;;;;;1.53;97.80;97603.97;5020803;28;20541;-62
2020/12/18 01:32:18;;;;;;;26.58;13.38;;;;;;;1.43;98.26;97614.91;5013350;28;20046;-63
2020/12/18 01:34:44;;;;;;;25.65;13.55;;;;;;;1.41;98.93;97598.97;5021492;28;20052;-64
2020/12/18 01:37:12;;;;;;;28.30;14.27;;;;;;;1.36;98.69;97606.31;5015347;28;20124;-63
2020/12/18 01:39:39;;;;;;;28.38;15.07;;;;;;;1.29;99.89;97603.94;5020177;28;20037;-61
2020/12/18 01:42:05;;;;;;;29.83;15.73;;;;;;;1.31;100.00;97596.38;5015708;28;20068;-60
2020/12/18 01:44:30;;;;;;;29.92;15.02;;;;;;;1.33;100.00;97596.88;5035577;28;20048;-61
2020/12/18 01:46:56;;;;;;;32.45;15.25;;;;;;;1.27;99.52;97589.94;5019327;28;20041;-62
2020/12/18 01:49:22;;;;;;;31.48;15.90;;;;;;;1.25;99.95;97598.31;5013498;28;20050;-64
2020/12/18 01:51:49;;;;;;;28.92;16.60;;;;;;;1.23;100.00;97594.31;5020156;28;20046;-63
2020/12/18 01:54:18;;;;;;;31.85;15.05;;;;;;;1.25;100.00;97590.22;5015531;28;20044;-63
2020/12/18 01:56:43;;;;;;;28.98;15.27;;;;;;;1.27;99.89;97579.94;5021397;28;20046;-62
2020/12/18 01:59:09;;;;;;;27.52;14.60;;;;;;;1.22;100.00;97587.28;5015119;28;20452;-63
2020/12/18 02:01:34;;;;;;;30.77;14.32;;;;;;;1.19;100.00;97591.38;5019960;28;20595;-63
2020/12/18 02:04:00;;;;;;;32.08;15.45;;;;;;;1.12;100.00;97591.69;5020406;28;20033;-64
2020/12/18 02:06:29;;;;;;;30.95;15.48;;;;;;;1.25;100.00;97590.22;5015099;28;20513;-63
2020/12/18 02:08:55;;;;;;;32.58;15.18;;;;;;;1.28;99.63;97592.34;5024112;28;20041;-63
2020/12/18 02:11:21;;;;;;;30.63;14.63;;;;;;;1.22;99.63;97596.16;5019308;28;20115;-64
2020/12/18 02:13:50;;;;;;;27.77;13.77;;;;;;;1.26;100.00;97596.41;5024153;28;20064;-64
2020/12/18 02:16:16;;;;;;;30.13;14.52;;;;;;;1.18;100.00;97595.13;5018300;28;20083;-64
2020/12/18 02:18:41;;;;;;;29.40;13.73;;;;;;;1.33;100.00;97596.88;5023742;28;20069;-63
2020/12/18 02:21:06;;;;;;;33.17;15.60;;;;;;;1.23;100.00;97587.00;5019554;28;20064;-63
2020/12/18 02:23:32;;;;;;;35.13;14.73;;;;;;;1.22;100.00;97589.97;5024281;28;20124;-63
2020/12/18 02:26:09;;;;;;;36.92;15.98;;;;;;;1.18;100.00;97594.34;5023093;28;20382;-63
2020/12/18 02:28:38;;;;;;;36.38;15.48;;;;;;;1.30;100.00;97608.28;5023908;28;20051;-62
2020/12/18 02:31:05;;;;;;;33.70;16.05;;;;;;;1.57;100.00;97609.63;5020878;28;20076;-61
2020/12/18 02:33:31;;;;;;;33.83;14.70;;;;;;;1.87;100.00;97603.09;5024165;28;20451;-63
2020/12/18 02:35:58;;;;;;;28.08;14.68;;;;;;;1.90;100.00;97610.63;5023548;28;20124;-63
2020/12/18 02:38:24;;;;;;;25.83;13.25;;;;;;;1.95;99.88;97590.84;5019278;28;20839;-63
2020/12/18 02:40:49;;;;;;;24.35;12.50;;;;;;;1.99;99.44;97592.69;5021202;28;20033;-64
2020/12/18 02:43:15;;;;;;;24.73;12.80;;;;;;;2.07;99.12;97599.31;5019529;28;20770;-63
2020/12/18 02:45:40;;;;;;;24.45;13.18;;;;;;;2.24;98.76;97586.16;5044130;28;20032;-62
2020/12/18 02:48:06;;;;;;;20.50;11.60;;;;;;;2.16;98.07;97583.28;5025513;28;20042;-63
2020/12/18 02:50:31;;;;;;;19.05;11.50;;;;;;;1.63;97.53;97578.78;5023994;28;20041;-61
2020/12/18 02:52:56;;;;;;;20.83;11.80;;;;;;;1.64;98.04;97580.38;5024579;28;20043;-61
2020/12/18 02:55:22;;;;;;;31.40;15.50;;;;;;;1.53;98.74;97580.50;5018866;28;20256;-64
2020/12/18 02:57:47;;;;;;;25.33;12.70;;;;;;;1.50;98.85;97577.56;5023666;28;20037;-65
2020/12/18 03:00:13;;;;;;;27.17;13.45;;;;;;;1.39;99.76;97574.16;5023909;28;20045;-62
2020/12/18 03:02:38;;;;;;;28.95;14.40;;;;;;;1.42;100.00;97576.28;5027549;28;20038;-64
2020/12/18 03:05:05;;;;;;;33.90;14.82;;;;;;;1.40;100.00;97570.38;5022479;28;20040;-63
2020/12/18 03:07:30;;;;;;;28.92;13.43;;;;;;;1.52;100.00;97578.88;5023313;28;20033;-62
2020/12/18 03:09:55;;;;;;;33.47;14.80;;;;;;;1.62;100.00;97586.09;5023409;28;20042;-61
2020/12/18 03:12:21;;;;;;;32.58;14.32;;;;;;;1.70;99.98;97587.34;5033952;28;20645;-62
2020/12/18 03:14:46;;;;;;;39.72;16.38;;;;;;;1.83;100.00;97591.25;5023300;28;20049;-62
2020/12/18 03:17:12;;;;;;;69.60;23.77;;;;;;;2.00;100.00;97593.47;5018979;28;20075;-63
2020/12/18 03:19:37;;;;;;;38.67;15.82;;;;;;;2.07;99.23;97594.75;5034692;28;20052;-62
2020/12/18 03:22:03;;;;;;;38.80;16.08;;;;;;;2.21;99.46;97588.63;5034270;28;20038;-60
2020/12/18 03:24:28;;;;;;;38.95;15.02;;;;;;;2.23;98.93;97592.66;5019709;28;20057;-63
2020/12/18 03:26:54;;;;;;;37.47;15.98;;;;;;;2.31;99.13;97583.09;5022841;28;20045;-63
2020/12/18 03:29:20;;;;;;;38.30;16.40;;;;;;;2.12;98.57;97574.16;5017634;28;20152;-62
2020/12/18 03:31:45;;;;;;;43.33;16.02;;;;;;;2.05;98.60;97572.63;5013266;28;20058;-63
2020/12/18 03:34:11;;;;;;;148.75;18.10;;;;;;;1.78;99.32;97567.78;4996827;28;20044;-62
2020/12/18 03:36:36;;;;;;;53.17;15.38;;;;;;;1.81;99.38;97577.22;5003004;28;20095;-63
2020/12/18 03:39:04;;;;;;;124.57;17.73;;;;;;;1.74;99.91;97574.88;5002824;28;20053;-63
2020/12/18 03:41:30;;;;;;;84.50;18.02;;;;;;;1.63;100.00;97563.38;5003229;28;20495;-63
2020/12/18 03:43:55;;;;;;;41.97;17.52;;;;;;;1.83;100.00;97550.72;5003635;28;20053;-64
2020/12/18 03:46:20;;;;;;;86.47;20.05;;;;;;;1.69;100.00;97554.13;4997934;28;20572;-64
2020/12/18 03:48:46;;;;;;;57.28;17.50;;;;;;;1.75;100.00;97560.28;5004847;28;20038;-64
2020/12/18 03:51:12;;;;;;;102.43;22.85;;;;;;;1.87;100.00;97555.28;5015792;28;20053;-63
2020/12/18 03:53:37;;;;;;;92.55;19.20;;;;;;;1.71;100.00;97559.22;5005976;28;20041;-63
2020/12/18 03:56:03;;;;;;;53.92;17.00;;;;;;;1.77;100.00;97568.91;5000156;28;20392;-62
2020/12/18 03:58:28;;;;;;;66.88;19.08;;;;;;;1.83;100.00;97570.44;5000425;28;20050;-63
2020/12/18 04:00:54;;;;;;;51.80;18.65;;;;;;;2.01;100.00;97573.47;5002746;28;20073;-62
2020/12/18 04:03:19;;;;;;;49.55;18.48;;;;;;;2.16;100.00;97583.28;4997468;28;20066;-63
2020/12/18 04:05:45;;;;;;;50.33;17.70;;;;;;;2.21;100.00;97583.22;5002590;28;20038;-63
2020/12/18 04:08:10;;;;;;;88.85;19.25;;;;;;;2.24;100.00;97579.94;4994896;28;20030;-61
2020/12/18 04:10:36;;;;;;;141.10;18.45;;;;;;;1.92;100.00;97579.50;5002619;28;20048;-63
2020/12/18 04:13:01;;;;;;;41.65;17.10;;;;;;;2.06;100.00;97578.81;5001937;28;20042;-64
2020/12/18 04:15:27;;;;;;;45.58;16.50;;;;;;;2.18;100.00;97583.78;4998894;28;20403;-64
2020/12/18 04:17:52;;;;;;;38.03;15.35;;;;;;;2.28;100.00;97575.56;5001797;28;20044;-63
2020/12/18 04:20:18;;;;;;;54.10;16.13;;;;;;;2.36;100.00;97584.91;4996822;28;20053;-64
2020/12/18 04:22:43;;;;;;;43.95;14.85;;;;;;;2.38;100.00;97580.84;5000956;28;20441;-63
2020/12/18 04:25:09;;;;;;;105.10;15.63;;;;;;;2.32;99.98;97581.19;4995976;28;20093;-63
2020/12/18 04:27:34;;;;;;;117.28;17.73;;;;;;;2.28;100.00;97583.66;5001822;28;20092;-63
2020/12/18 04:30:00;;;;;;;146.85;17.77;;;;;;;1.95;99.76;97571.94;5001791;28;20042;-64
2020/12/18 04:32:26;;;;;;;146.70;17.88;;;;;;;1.75;100.00;97562.97;4996277;28;20119;-63
2020/12/18 04:34:52;;;;;;;102.22;17.35;;;;;;;1.74;100.00;97566.75;5001795;28;20038;-62
2020/12/18 04:37:18;;;;;;;40.53;15.68;;;;;;;1.89;100.00;97565.78;4996344;28;20045;-64
2020/12/18 04:39:43;;;;;;;151.77;18.52;;;;;;;1.86;100.00;97561.75;5000953;28;20049;-62
2020/12/18 04:42:08;;;;;;;210.18;19.50;;;;;;;1.68;100.00;97560.63;4996312;28;20221;-61
2020/12/18 04:44:34;;;;;;;36.33;14.93;;;;;;;1.67;100.00;97563.59;5003986;28;20506;-61
2020/12/18 04:47:00;;;;;;;127.57;20.55;;;;;;;1.66;100.00;97554.72;5007131;28;20048;-64
2020/12/18 04:49:29;;;;;;;51.25;15.27;;;;;;;1.78;100.00;97564.28;5022254;28;20053;-64
2020/12/18 04:52:00;;;;;;;30.77;13.80;;;;;;;1.98;100.00;97564.06;5022678;28;20048;-62
2020/12/18 04:54:27;;;;;;;34.78;14.90;;;;;;;2.06;100.00;97563.41;5000981;28;20136;-63
2020/12/18 04:56:55;;;;;;;32.13;13.77;;;;;;;2.14;100.00;97567.34;4999639;28;20117;-62
2020/12/18 04:59:23;;;;;;;113.75;15.20;;;;;;;1.76;100.00;97566.47;4994962;28;20041;-64
2020/12/18 05:01:52;;;;;;;33.90;14.32;;;;;;;1.75;100.00;97556.75;4999976;28;20124;-64
2020/12/18 05:04:20;;;;;;;35.47;14.65;;;;;;;1.90;100.00;97556.59;4993891;28;20403;-63
2020/12/18 05:06:45;;;;;;;34.95;15.27;;;;;;;2.04;100.00;97560.19;4999718;28;20597;-63
2020/12/18 05:09:11;;;;;;;44.95;14.32;;;;;;;2.19;100.00;97563.78;4995502;28;20136;-63
2020/12/18 05:11:36;;;;;;;40.25;13.90;;;;;;;2.20;99.72;97568.13;5000974;28;20058;-63
2020/12/18 05:14:02;;;;;;;34.00;13.68;;;;;;;2.23;99.85;97564.81;5000903;28;20399;-63
2020/12/18 05:16:27;;;;;;;31.10;13.02;;;;;;;2.18;99.66;97567.56;4996961;28;20042;-63
2020/12/18 05:18:55;;;;;;;100.07;15.20;;;;;;;1.92;99.63;97568.69;5001209;28;20052;-64
2020/12/18 05:21:21;;;;;;;41.83;14.02;;;;;;;2.01;99.16;97568.88;4995719;28;20038;-64
2020/12/18 05:23:47;;;;;;;32.63;13.00;;;;;;;2.05;99.91;97582.59;5001412;28;20038;-63
2020/12/18 05:26:14;;;;;;;30.40;13.27;;;;;;;2.14;99.42;97577.38;4995993;28;20446;-63
2020/12/18 05:28:48;;;;;;;23.60;12.15;;;;;;;2.14;99.15;97582.78;5000857;28;20038;-63
2020/12/18 05:31:15;;;;;;;36.35;12.45;;;;;;;2.06;98.95;97585.03;4993458;28;20072;-63
2020/12/18 05:33:42;;;;;;;25.35;12.75;;;;;;;2.05;99.10;97582.59;5000889;28;20044;-62
2020/12/18 05:36:09;;;;;;;23.25;11.68;;;;;;;2.22;97.99;97582.94;4995793;28;20518;-64
2020/12/18 05:38:38;;;;;;;41.90;12.30;;;;;;;2.08;97.77;97580.13;5000063;28;20042;-62
2020/12/18 05:41:05;;;;;;;50.03;13.82;;;;;;;1.94;98.22;97579.22;4996607;28;20073;-60
2020/12/18 05:43:38;;;;;;;27.23;11.50;;;;;;;1.82;98.26;97578.81;5000537;28;20563;-62
2020/12/18 05:46:20;;;;;;;35.08;12.35;;;;;;;1.79;98.81;97582.13;5002948;28;20107;-63
2020/12/18 05:48:59;;;;;;;44.75;12.38;;;;;;;1.79;98.79;97582.91;5010744;28;20628;-63
2020/12/18 05:51:27;;;;;;;18.88;10.35;;;;;;;1.74;99.03;97577.56;5034147;28;20510;-62
2020/12/18 05:54:11;;;;;;;22.80;11.35;;;;;;;1.94;98.58;97586.53;4999812;28;20050;-64
2020/12/18 05:56:38;;;;;;;27.58;11.65;;;;;;;1.95;98.80;97588.16;5000831;28;20096;-64
2020/12/18 05:59:12;;;;;;;42.03;12.25;;;;;;;1.96;98.24;97593.25;4998407;28;20060;-62
2020/12/18 06:01:48;;;;;;;36.17;11.63;;;;;;;2.17;98.63;97591.09;5006993;28;20414;-64
2020/12/18 06:04:13;;;;;;;28.90;12.25;;;;;;;2.40;98.13;97600.25;5003823;28;20042;-62
2020/12/18 06:06:43;;;;;;;32.55;13.02;;;;;;;2.41;98.19;97599.19;5003897;28;20053;-63
2020/12/18 06:09:10;;;;;;;30.52;12.13;;;;;;;2.35;98.35;97602.25;4992608;28;20516;-63
2020/12/18 06:11:36;;;;;;;23.20;12.25;;;;;;;2.30;97.67;97605.81;5000349;28;20053;-63
2020/12/18 06:14:03;;;;;;;37.90;12.18;;;;;;;2.15;98.10;97608.72;4998943;28;20254;-62
2020/12/18 06:16:29;;;;;;;26.27;11.57;;;;;;;2.23;97.38;97606.19;4998071;28;20150;-63
2020/12/18 06:19:03;;;;;;;23.50;10.25;;;;;;;2.32;96.28;97605.50;4998016;28;20042;-63
2020/12/18 06:21:29;;;;;;;19.30;10.32;;;;;;;2.23;96.62;97606.19;4998250;28;20632;-64
2020/12/18 06:23:54;;;;;;;32.67;10.57;;;;;;;2.14;96.54;97607.88;4999226;28;20089;-61
2020/12/18 06:26:20;;;;;;;59.90;11.38;;;;;;;1.88;96.22;97597.41;4994135;28;20096;-64
2020/12/18 06:28:46;;;;;;;29.27;11.10;;;;;;;1.89;96.91;97601.72;5000968;28;20403;-63
2020/12/18 06:31:33;;;;;;;24.77;12.10;;;;;;;2.00;96.52;97602.41;4995269;28;20045;-63
2020/12/18 06:34:01;;;;;;;81.75;14.07;;;;;;;1.96;97.45;97597.84;5003078;28;20042;-65
2020/12/18 06:36:48;;;;;;;33.20;10.75;;;;;;;1.93;97.34;97601.94;4998441;28;20520;-62
2020/12/18 06:39:30;;;;;;;30.73;11.00;;;;;;;1.77;97.68;97600.50;4995535;28;20042;-62
2020/12/18 06:42:08;;;;;;;28.20;11.07;;;;;;;1.97;97.92;97602.97;5000851;28;20037;-61
2020/12/18 06:44:38;;;;;;;79.28;14.15;;;;;;;2.09;98.14;97599.88;5000426;28;20128;-62
2020/12/18 06:47:12;;;;;;;30.33;12.38;;;;;;;2.15;98.28;97601.41;4998043;28;20088;-64
2020/12/18 06:49:57;;;;;;;33.22;11.43;;;;;;;2.22;97.54;97601.06;5001470;28;20458;-61
2020/12/18 06:52:44;;;;;;;105.38;13.15;;;;;;;1.95;97.60;97597.06;4995409;28;20054;-65
2020/12/18 06:55:30;;;;;;;44.67;11.50;;;;;;;1.59;98.35;97589.34;4999404;28;20487;-61
2020/12/18 06:58:08;;;;;;;73.28;12.13;;;;;;;1.68;98.96;97598.44;4997399;28;20041;-61
2020/12/18 07:00:46;;;;;;;86.45;13.05;;;;;;;1.44;98.99;97601.13;5002436;28;20050;-63
2020/12/18 07:03:36;;;;;;;137.55;14.75;;;;;;;1.40;100.00;97605.47;4998018;28;20129;-60
2020/12/18 07:06:04;;;;;;;36.08;13.73;;;;;;;1.71;99.60;97605.13;5003794;28;20034;-61
2020/12/18 07:08:35;;;;;;;36.03;14.50;;;;;;;1.85;99.92;97608.75;5016230;28;20053;-62
2020/12/18 07:11:20;;;;;;;29.92;13.02;;;;;;;1.84;99.44;97609.09;5024162;28;20042;-62
2020/12/18 07:13:48;;;;;;;31.83;12.45;;;;;;;1.98;99.23;97601.88;5022703;28;20044;-61
2020/12/18 07:16:15;;;;;;;27.88;12.65;;;;;;;2.08;99.69;97598.25;5018342;28;20037;-64
2020/12/18 07:18:42;;;;;;;33.33;13.32;;;;;;;2.18;99.29;97600.00;5023978;28;20081;-62
2020/12/18 07:21:11;;;;;;;63.28;14.27;;;;;;;1.84;97.61;97595.56;5018300;28;20133;-62
2020/12/18 07:23:41;;;;;;;59.33;14.10;;;;;;;1.64;98.73;97600.09;5021966;28;20041;-60
2020/12/18 07:26:08;;;;;;;34.80;12.48;;;;;;;1.78;99.12;97597.50;5018470;28;20558;-62
2020/12/18 07:28:37;;;;;;;39.22;13.20;;;;;;;2.00;99.11;97598.88;5021171;28;21767;-62
2020/12/18 07:31:03;;;;;;;28.15;13.32;;;;;;;2.16;98.30;97602.19;5022242;28;20038;-62
2020/12/18 07:33:29;;;;;;;30.45;12.60;;;;;;;2.17;98.11;97593.81;5020490;28;20631;-59
2020/12/18 07:35:56;;;;;;;37.00;13.43;;;;;;;1.90;98.14;97589.81;5023386;28;20053;-59
2020/12/18 07:38:26;;;;;;;48.78;13.95;;;;;;;1.85;98.13;97583.66;5000265;28;21644;-62
2020/12/18 07:40:54;;;;;;;86.32;14.20;;;;;;;1.70;98.43;97581.94;5002866;28;20073;-62
2020/12/18 07:43:22;;;;;;;80.13;15.13;;;;;;;1.60;97.98;97590.16;5001233;28;20042;-63
2020/12/18 07:45:50;;;;;;;53.50;13.50;;;;;;;1.36;98.73;97584.72;5003109;28;20046;-61
2020/12/18 07:48:22;;;;;;;68.22;13.77;;;;;;;1.08;99.10;97582.56;4997393;28;20044;-61
2020/12/18 07:50:55;;;;;;;88.85;15.00;;;;;;;0.94;100.00;97587.00;5003772;28;20066;-62
2020/12/18 07:53:21;;;;;;;40.40;14.77;;;;;;;1.06;100.00;97594.69;4997186;28;20376;-62
2020/12/18 07:56:04;;;;;;;53.72;16.23;;;;;;;1.05;100.00;97603.91;5002663;28;20049;-62
2020/12/18 07:58:31;;;;;;;82.38;25.02;;;;;;;0.90;100.00;97596.72;5002052;28;20042;-60
2020/12/18 08:01:05;;;;;;;395.90;32.25;;;;;;;0.70;100.00;97600.38;5003238;28;20503;-61
2020/12/18 08:03:31;;;;;;;124.38;19.77;;;;;;;0.70;100.00;97603.06;5001864;28;20776;-62
2020/12/18 08:05:57;;;;;;;80.35;24.80;;;;;;;0.86;100.00;97606.47;5003172;28;20038;-61
2020/12/18 08:08:23;;;;;;;64.13;19.88;;;;;;;0.92;100.00;97597.25;4998155;28;20061;-62
2020/12/18 08:10:51;;;;;;;55.67;17.67;;;;;;;1.00;100.00;97599.34;5002781;28;20080;-61
2020/12/18 08:13:27;;;;;;;131.27;27.33;;;;;;;1.08;100.00;97601.44;4996943;28;20049;-63
2020/12/18 08:16:12;;;;;;;109.93;24.60;;;;;;;0.93;100.00;97598.84;5004828;28;20042;-63
2020/12/18 08:18:38;;;;;;;170.15;27.77;;;;;;;0.79;100.00;97601.38;5005511;28;20442;-63
2020/12/18 08:21:05;;;;;;;66.35;17.35;;;;;;;0.85;100.00;97600.25;5001920;28;20041;-62
2020/12/18 08:23:34;;;;;;;108.28;22.35;;;;;;;0.75;100.00;97600.34;5003305;28;20052;-63
2020/12/18 08:26:02;;;;;;;119.15;22.00;;;;;;;0.59;100.00;97606.91;5018003;28;20153;-63
2020/12/18 08:28:29;;;;;;;117.88;21.00;;;;;;;0.52;100.00;97599.13;4981434;28;20073;-63
2020/12/18 08:30:57;;;;;;;61.83;17.25;;;;;;;0.64;100.00;97599.59;5002358;28;20447;-63
2020/12/18 08:33:24;;;;;;;80.88;20.58;;;;;;;0.85;100.00;97604.88;4995649;28;20634;-63
2020/12/18 08:35:52;;;;;;;74.35;20.15;;;;;;;0.56;100.00;97600.22;5002528;28;20049;-60
2020/12/18 08:38:18;;;;;;;95.93;22.35;;;;;;;0.56;100.00;97608.28;4998757;28;20126;-62
2020/12/18 08:40:43;;;;;;;114.88;19.65;;;;;;;0.69;100.00;97606.84;5021923;28;20557;-62
2020/12/18 08:43:13;;;;;;;116.40;21.13;;;;;;;0.65;100.00;97603.09;5016323;28;20092;-63
2020/12/18 08:45:43;;;;;;;107.18;22.85;;;;;;;0.76;100.00;97608.16;5022134;28;20045;-62
2020/12/18 08:48:09;;;;;;;55.50;18.75;;;;;;;1.00;100.00;97612.03;5016846;28;20048;-63
2020/12/18 08:50:35;;;;;;;100.35;18.33;;;;;;;1.07;100.00;97612.50;5021307;28;20395;-61
2020/12/18 08:53:13;;;;;;;119.50;36.53;;;;;;;0.84;100.00;97609.44;5018328;28;20095;-62
2020/12/18 08:55:40;;;;;;;77.40;16.40;;;;;;;1.04;100.00;97621.16;5001916;28;20045;-63
2020/12/18 08:58:10;;;;;;;77.22;17.77;;;;;;;0.80;100.00;97613.78;4997463;28;20041;-63
2020/12/18 09:00:35;;;;;;;;;;;;;;;0.81;100.00;97612.72;5002682;28;20129;-62
2020/12/18 09:03:02;;;;;;;49.70;15.30;;;;;;;0.91;100.00;97612.63;5001997;28;20008;-63
2020/12/18 09:05:30;;;;;;;154.55;17.90;;;;;;;0.92;100.00;97614.25;4998305;28;20057;-62
2020/12/18 09:08:06;;;;;;;96.97;17.48;;;;;;;0.85;100.00;97618.34;4999895;28;20034;-61
2020/12/18 09:10:39;;;;;;;57.05;17.13;;;;;;;0.88;100.00;97617.78;4981114;28;20109;-63
2020/12/18 09:13:20;;;;;;;43.83;16.42;;;;;;;1.24;100.00;97615.63;4977804;28;20042;-65
2020/12/18 09:16:02;;;;;;;40.53;16.35;;;;;;;1.67;100.00;97620.31;4980378;28;20046;-61
2020/12/18 09:18:29;;;;;;;57.03;18.50;;;;;;;0.96;100.00;97619.88;4976825;28;20053;-62
2020/12/18 09:20:55;;;;;;;76.28;22.38;;;;;;;0.70;100.00;97617.38;4981228;28;20400;-63
2020/12/18 09:23:31;;;;;;;34.10;15.27;;;;;;;1.08;100.00;97624.91;4976637;28;20100;-61
2020/12/18 09:25:58;;;;;;;57.67;15.48;;;;;;;1.29;100.00;97622.84;4981779;28;20112;-62
2020/12/18 09:28:24;;;;;;;50.20;14.70;;;;;;;1.59;100.00;97620.97;4979596;28;20633;-62
2020/12/18 09:30:54;;;;;;;81.05;17.73;;;;;;;0.85;99.85;97621.03;5000724;28;20038;-62
2020/12/18 09:33:25;;;;;;;55.70;14.75;;;;;;;0.68;100.00;97616.81;4993471;28;20586;-61
2020/12/18 09:36:12;;;;;;;81.82;15.75;;;;;;;0.99;100.00;97622.03;5001359;28;20070;-62
2020/12/18 09:38:44;;;;;;;42.40;16.38;;;;;;;1.23;100.00;97622.09;5000262;28;20038;-64
2020/12/18 09:41:14;;;;;;;31.70;14.00;;;;;;;1.64;100.00;97621.72;4996142;28;20034;-62
2020/12/18 09:43:40;;;;;;;69.35;19.65;;;;;;;1.48;98.17;97621.06;5003355;28;20398;-63
2020/12/18 09:46:13;;;;;;;45.13;17.95;;;;;;;1.28;99.01;97619.34;4996018;28;20045;-62
2020/12/18 09:48:40;;;;;;;78.43;17.00;;;;;;;1.24;98.11;97626.41;4999728;28;20062;-61
2020/12/18 09:51:05;;;;;;;82.35;14.20;;;;;;;1.41;97.81;97617.06;5014589;28;20398;-63
2020/12/18 09:53:30;;;;;;;73.28;14.63;;;;;;;1.10;98.49;97612.75;5018699;28;20045;-63
2020/12/18 09:55:56;;;;;;;69.72;17.60;;;;;;;1.02;100.00;97617.94;5020237;28;20050;-61
2020/12/18 09:58:21;;;;;;;49.70;15.07;;;;;;;1.02;100.00;97610.66;5014929;28;20691;-61
2020/12/18 10:00:47;;;;;;;61.70;17.08;;;;;;;1.20;100.00;97609.16;5021164;28;20041;-63
2020/12/18 10:03:13;;;;;;;54.63;16.02;;;;;;;1.32;100.00;97606.88;4999024;28;20080;-63
2020/12/18 10:05:38;;;;;;;68.07;24.08;;;;;;;1.19;100.00;97601.34;4999186;28;20109;-65
2020/12/18 10:08:04;;;;;;;51.20;19.17;;;;;;;1.35;99.57;97597.41;5001956;28;20045;-62
2020/12/18 10:10:30;;;;;;;62.45;16.75;;;;;;;1.47;99.80;97597.81;5000985;28;20078;-60
2020/12/18 10:12:57;;;;;;;34.65;16.10;;;;;;;1.95;99.63;97596.25;5000082;28;20437;-62
2020/12/18 10:15:23;;;;;;;33.55;15.70;;;;;;;2.15;97.77;97592.50;4995282;28;20080;-62
2020/12/18 10:17:49;;;;;;;37.90;15.70;;;;;;;2.42;95.96;97589.16;4999359;28;20038;-62
2020/12/18 10:20:15;;;;;;;26.30;14.35;;;;;;;2.66;94.68;97589.09;4994255;28;20045;-62
2020/12/18 10:22:40;;;;;;;27.13;12.65;;;;;;;2.77;91.37;97589.72;4998834;28;20038;-62
2020/12/18 10:25:06;;;;;;;23.65;11.48;;;;;;;2.65;92.63;97591.00;4995525;28;20057;-62
2020/12/18 10:27:31;;;;;;;48.33;14.48;;;;;;;2.64;91.20;97583.97;5002334;28;20227;-63
2020/12/18 10:29:56;;;;;;;36.45;12.18;;;;;;;2.66;91.75;97587.16;5004117;28;20505;-63
2020/12/18 10:32:27;;;;;;;31.58;12.45;;;;;;;2.72;91.71;97578.97;4997548;28;20401;-62
2020/12/18 10:34:53;;;;;;;21.30;12.13;;;;;;;2.80;92.65;97581.84;5004858;28;20479;-63
2020/12/18 10:37:19;;;;;;;27.13;12.40;;;;;;;2.67;92.15;97571.78;4999454;28;20069;-62
2020/12/18 10:39:44;;;;;;;20.52;11.90;;;;;;;2.85;92.20;97564.72;5003515;28;20042;-62
2020/12/18 10:42:10;;;;;;;19.75;11.43;;;;;;;3.29;90.77;97568.84;5005122;28;20052;-67
2020/12/18 10:44:36;;;;;;;30.83;12.85;;;;;;;2.61;92.16;97570.22;5007794;28;20064;-63
2020/12/18 10:47:03;;;;;;;26.95;12.40;;;;;;;2.93;92.36;97568.66;5003610;28;20042;-63
2020/12/18 10:49:29;;;;;;;18.98;11.40;;;;;;;2.98;90.72;97569.38;5002782;28;20050;-63
2020/12/18 10:51:55;;;;;;;28.10;12.30;;;;;;;2.30;93.07;97576.06;5003558;28;20466;-63
2020/12/18 10:54:20;;;;;;;19.38;11.80;;;;;;;2.71;93.02;97566.56;4998650;28;20045;-62
2020/12/18 10:56:55;;;;;;;18.80;11.65;;;;;;;3.16;91.68;97553.41;5003996;28;20080;-62
2020/12/18 10:59:21;;;;;;;22.25;10.32;;;;;;;3.49;90.40;97562.25;4998671;28;20104;-62
2020/12/18 11:01:51;;;;;;;23.25;10.77;;;;;;;3.51;90.01;97559.25;5001045;28;20045;-64
2020/12/18 11:04:17;;;;;;;20.35;10.73;;;;;;;3.78;87.93;97559.28;4979582;28;20076;-63
2020/12/18 11:06:42;;;;;;;19.25;10.43;;;;;;;3.80;87.46;97561.72;4984234;28;20066;-62
2020/12/18 11:09:07;;;;;;;21.15;10.30;;;;;;;3.68;86.55;97564.09;4978813;28;20042;-62
2020/12/18 11:11:33;;;;;;;19.23;10.82;;;;;;;3.70;86.86;97557.28;4984147;28;20046;-64
2020/12/18 11:13:59;;;;;;;21.02;10.73;;;;;;;3.88;86.40;97549.34;4984297;28;20057;-63
2020/12/18 11:16:24;;;;;;;17.73;10.10;;;;;;;4.09;85.43;97545.13;4979367;28;20995;-61
2020/12/18 11:18:49;;;;;;;22.13;10.27;;;;;;;4.21;84.33;97539.97;5003323;28;20510;-63
2020/12/18 11:21:15;;;;;;;13.65;8.70;;;;;;;3.90;84.62;97539.81;4999541;28;20123;-61
2020/12/18 11:23:41;;;;;;;17.23;9.00;;;;;;;4.07;84.89;97544.63;5004080;28;20395;-61